sensor_id;sensor_type;location;lat;lon;timestamp;pressure;altitude;pressure_sealevel;temperature;humidity
76598;BME280;65486;53.144;18.134;2023-02-14T00:01:12;102892.00;;;1.21;81.75
76598;BME280;65486;53.144;18.134;2023-02-14T00:03:44;102894.90;;;1.25;81.84
76598;BME280;65486;53.144;18.134;2023-02-14T00:06:12;102893.22;;;1.31;81.91
76598;BME280;65486;53.144;18.134;2023-02-14T00:08:40;102890.83;;;1.37;81.85
76598;BME280;65486;53.144;18.134;2023-02-14T00:11:11;102895.05;;;1.43;81.56
76598;BME280;65486;53.144;18.134;2023-02-14T00:13:46;102895.89;;;1.49;81.79
76598;BME280;65486;53.144;18.134;2023-02-14T00:16:33;102894.13;;;1.58;82.02
76598;BME280;65486;53.144;18.134;2023-02-14T00:19:17;102895.90;;;1.66;81.85
76598;BME280;65486;53.144;18.134;2023-02-14T00:21:45;102895.61;;;1.73;81.81
76598;BME280;65486;53.144;18.134;2023-02-14T00:24:18;102895.05;;;1.78;81.96
76598;BME280;65486;53.144;18.134;2023-02-14T00:26:44;102896.73;;;1.82;81.89
76598;BME280;65486;53.144;18.134;2023-02-14T00:29:13;102893.16;;;1.86;81.98
76598;BME280;65486;53.144;18.134;2023-02-14T00:31:45;102887.73;;;1.93;81.75
76598;BME280;65486;53.144;18.134;2023-02-14T00:34:18;102889.41;;;1.99;81.67
76598;BME280;65486;53.144;18.134;2023-02-14T00:36:49;102889.39;;;2.04;81.72
76598;BME280;65486;53.144;18.134;2023-02-14T00:39:27;102889.91;;;2.07;81.64
76598;BME280;65486;53.144;18.134;2023-02-14T00:42:05;102886.19;;;2.10;81.47
76598;BME280;65486;53.144;18.134;2023-02-14T00:44:34;102885.70;;;2.15;81.63
76598;BME280;65486;53.144;18.134;2023-02-14T00:47:06;102885.52;;;2.19;81.48
76598;BME280;65486;53.144;18.134;2023-02-14T00:49:33;102888.50;;;2.23;81.38
76598;BME280;65486;53.144;18.134;2023-02-14T00:51:59;102890.20;;;2.25;81.43
76598;BME280;65486;53.144;18.134;2023-02-14T00:54:26;102891.05;;;2.25;81.26
76598;BME280;65486;53.144;18.134;2023-02-14T00:56:52;102891.21;;;2.25;81.46
76598;BME280;65486;53.144;18.134;2023-02-14T00:59:18;102897.20;;;2.28;81.29
76598;BME280;65486;53.144;18.134;2023-02-14T01:01:45;102896.11;;;2.30;81.51
76598;BME280;65486;53.144;18.134;2023-02-14T01:04:16;102898.92;;;2.34;81.33
76598;BME280;65486;53.144;18.134;2023-02-14T01:07:02;102899.45;;;2.36;81.27
76598;BME280;65486;53.144;18.134;2023-02-14T01:09:40;102894.66;;;2.39;81.20
76598;BME280;65486;53.144;18.134;2023-02-14T01:12:18;102895.09;;;2.41;81.47
76598;BME280;65486;53.144;18.134;2023-02-14T01:14:57;102888.49;;;2.44;81.37
76598;BME280;65486;53.144;18.134;2023-02-14T01:17:23;102883.50;;;2.45;81.52
76598;BME280;65486;53.144;18.134;2023-02-14T01:19:53;102875.04;;;2.49;81.51
76598;BME280;65486;53.144;18.134;2023-02-14T01:22:20;102876.42;;;2.52;81.47
76598;BME280;65486;53.144;18.134;2023-02-14T01:24:46;102875.48;;;2.52;81.50
76598;BME280;65486;53.144;18.134;2023-02-14T01:27:14;102881.60;;;2.51;81.47
76598;BME280;65486;53.144;18.134;2023-02-14T01:29:41;102878.37;;;2.50;81.65
76598;BME280;65486;53.144;18.134;2023-02-14T01:32:10;102879.26;;;2.53;81.83
76598;BME280;65486;53.144;18.134;2023-02-14T01:34:42;102877.97;;;2.53;81.72
76598;BME280;65486;53.144;18.134;2023-02-14T01:37:08;102878.50;;;2.56;81.73
76598;BME280;65486;53.144;18.134;2023-02-14T01:39:35;102877.77;;;2.58;81.59
76598;BME280;65486;53.144;18.134;2023-02-14T01:42:01;102881.73;;;2.58;81.74
76598;BME280;65486;53.144;18.134;2023-02-14T01:46:59;102887.36;;;2.61;81.79
76598;BME280;65486;53.144;18.134;2023-02-14T01:49:36;102887.39;;;2.61;81.96
76598;BME280;65486;53.144;18.134;2023-02-14T01:52:18;102884.54;;;2.62;81.96
76598;BME280;65486;53.144;18.134;2023-02-14T01:55:03;102890.73;;;2.62;82.01
76598;BME280;65486;53.144;18.134;2023-02-14T01:57:38;102890.18;;;2.62;82.16
76598;BME280;65486;53.144;18.134;2023-02-14T02:00:09;102889.21;;;2.63;82.00
76598;BME280;65486;53.144;18.134;2023-02-14T02:02:56;102889.23;;;2.63;82.31
76598;BME280;65486;53.144;18.134;2023-02-14T02:05:34;102891.81;;;2.62;82.21
76598;BME280;65486;53.144;18.134;2023-02-14T02:08:03;102889.45;;;2.63;82.39
76598;BME280;65486;53.144;18.134;2023-02-14T02:10:29;102887.63;;;2.62;82.36
76598;BME280;65486;53.144;18.134;2023-02-14T02:13:04;102883.13;;;2.62;82.65
76598;BME280;65486;53.144;18.134;2023-02-14T02:15:43;102893.16;;;2.61;82.50
76598;BME280;65486;53.144;18.134;2023-02-14T02:24:57;102889.52;;;2.62;82.92
76598;BME280;65486;53.144;18.134;2023-02-14T02:33:01;102881.61;;;2.63;82.98
76598;BME280;65486;53.144;18.134;2023-02-14T02:42:32;102889.52;;;2.64;83.40
76598;BME280;65486;53.144;18.134;2023-02-14T02:53:02;102893.67;;;2.66;83.40
76598;BME280;65486;53.144;18.134;2023-02-14T02:56:00;102894.21;;;2.66;83.50
76598;BME280;65486;53.144;18.134;2023-02-14T02:59:09;102901.90;;;2.68;83.48
76598;BME280;65486;53.144;18.134;2023-02-14T03:02:34;102899.22;;;2.70;83.39
76598;BME280;65486;53.144;18.134;2023-02-14T03:05:27;102898.77;;;2.71;83.55
76598;BME280;65486;53.144;18.134;2023-02-14T03:07:57;102900.40;;;2.73;83.60
76598;BME280;65486;53.144;18.134;2023-02-14T03:10:32;102909.21;;;2.74;83.42
76598;BME280;65486;53.144;18.134;2023-02-14T03:22:34;102904.42;;;2.80;83.68
76598;BME280;65486;53.144;18.134;2023-02-14T03:25:30;102909.14;;;2.82;83.65
76598;BME280;65486;53.144;18.134;2023-02-14T03:29:00;102910.09;;;2.83;83.44
76598;BME280;65486;53.144;18.134;2023-02-14T03:31:50;102919.56;;;2.85;83.40
76598;BME280;65486;53.144;18.134;2023-02-14T03:42:01;102915.88;;;2.93;83.33
76598;BME280;65486;53.144;18.134;2023-02-14T03:44:33;102918.39;;;2.93;83.49
76598;BME280;65486;53.144;18.134;2023-02-14T03:47:13;102919.41;;;2.94;83.31
76598;BME280;65486;53.144;18.134;2023-02-14T03:49:50;102924.48;;;2.94;83.34
76598;BME280;65486;53.144;18.134;2023-02-14T03:52:25;102923.11;;;2.96;83.51
76598;BME280;65486;53.144;18.134;2023-02-14T03:55:35;102917.23;;;2.96;83.53
76598;BME280;65486;53.144;18.134;2023-02-14T03:58:15;102918.11;;;2.97;83.35
76598;BME280;65486;53.144;18.134;2023-02-14T04:00:50;102914.48;;;2.97;83.46
76598;BME280;65486;53.144;18.134;2023-02-14T04:03:27;102916.47;;;2.97;83.46
76598;BME280;65486;53.144;18.134;2023-02-14T04:05:57;102912.26;;;2.97;83.40
76598;BME280;65486;53.144;18.134;2023-02-14T04:08:27;102917.86;;;2.97;83.54
76598;BME280;65486;53.144;18.134;2023-02-14T04:10:59;102919.40;;;2.97;83.60
76598;BME280;65486;53.144;18.134;2023-02-14T04:13:31;102923.22;;;2.97;83.69
76598;BME280;65486;53.144;18.134;2023-02-14T04:15:59;102920.69;;;2.96;83.59
76598;BME280;65486;53.144;18.134;2023-02-14T04:18:29;102917.09;;;2.96;83.61
76598;BME280;65486;53.144;18.134;2023-02-14T04:21:16;102914.83;;;2.95;83.78
76598;BME280;65486;53.144;18.134;2023-02-14T04:23:43;102913.61;;;2.94;83.82
76598;BME280;65486;53.144;18.134;2023-02-14T04:26:09;102910.04;;;2.93;83.74
76598;BME280;65486;53.144;18.134;2023-02-14T04:28:44;102901.19;;;2.92;83.72
76598;BME280;65486;53.144;18.134;2023-02-14T04:31:10;102903.66;;;2.91;83.95
76598;BME280;65486;53.144;18.134;2023-02-14T04:33:38;102899.67;;;2.89;83.91
76598;BME280;65486;53.144;18.134;2023-02-14T04:36:07;102909.04;;;2.90;83.90
76598;BME280;65486;53.144;18.134;2023-02-14T04:38:34;102920.23;;;2.88;84.03
76598;BME280;65486;53.144;18.134;2023-02-14T04:41:04;102922.23;;;2.88;83.91
76598;BME280;65486;53.144;18.134;2023-02-14T04:43:37;102920.42;;;2.88;83.93
76598;BME280;65486;53.144;18.134;2023-02-14T04:46:03;102913.77;;;2.87;83.95
76598;BME280;65486;53.144;18.134;2023-02-14T04:48:30;102917.61;;;2.87;84.05
76598;BME280;65486;53.144;18.134;2023-02-14T04:50:57;102912.95;;;2.82;84.11
76598;BME280;65486;53.144;18.134;2023-02-14T04:53:24;102922.37;;;2.87;84.16
76598;BME280;65486;53.144;18.134;2023-02-14T04:55:50;102920.30;;;2.87;83.99
76598;BME280;65486;53.144;18.134;2023-02-14T04:58:18;102923.48;;;2.89;84.13
76598;BME280;65486;53.144;18.134;2023-02-14T05:00:45;102918.96;;;2.88;84.32
76598;BME280;65486;53.144;18.134;2023-02-14T05:03:14;102918.39;;;2.89;84.09
76598;BME280;65486;53.144;18.134;2023-02-14T05:05:42;102924.70;;;2.89;84.24
76598;BME280;65486;53.144;18.134;2023-02-14T05:08:09;102923.59;;;2.90;84.03
76598;BME280;65486;53.144;18.134;2023-02-14T05:10:35;102920.54;;;2.89;84.06
76598;BME280;65486;53.144;18.134;2023-02-14T05:13:01;102919.92;;;2.90;84.06
76598;BME280;65486;53.144;18.134;2023-02-14T05:15:28;102922.10;;;2.90;84.05
76598;BME280;65486;53.144;18.134;2023-02-14T05:17:55;102918.16;;;2.89;84.06
76598;BME280;65486;53.144;18.134;2023-02-14T05:20:41;102921.08;;;2.89;84.39
76598;BME280;65486;53.144;18.134;2023-02-14T05:23:09;102921.58;;;2.88;84.51
76598;BME280;65486;53.144;18.134;2023-02-14T05:25:41;102914.29;;;2.88;84.30
76598;BME280;65486;53.144;18.134;2023-02-14T05:28:14;102906.58;;;2.87;84.43
76598;BME280;65486;53.144;18.134;2023-02-14T05:30:45;102915.11;;;2.87;84.55
76598;BME280;65486;53.144;18.134;2023-02-14T05:33:12;102922.84;;;2.85;84.58
76598;BME280;65486;53.144;18.134;2023-02-14T05:35:38;102925.45;;;2.84;84.81
76598;BME280;65486;53.144;18.134;2023-02-14T05:38:04;102924.61;;;2.83;84.76
76598;BME280;65486;53.144;18.134;2023-02-14T05:40:31;102918.09;;;2.83;84.64
76598;BME280;65486;53.144;18.134;2023-02-14T05:42:59;102923.55;;;2.83;84.67
76598;BME280;65486;53.144;18.134;2023-02-14T05:45:26;102927.38;;;2.83;84.63
76598;BME280;65486;53.144;18.134;2023-02-14T05:48:01;102929.52;;;2.84;84.59
76598;BME280;65486;53.144;18.134;2023-02-14T05:50:29;102926.72;;;2.84;84.74
76598;BME280;65486;53.144;18.134;2023-02-14T05:52:57;102929.20;;;2.85;84.52
76598;BME280;65486;53.144;18.134;2023-02-14T05:55:23;102928.84;;;2.85;84.70
76598;BME280;65486;53.144;18.134;2023-02-14T05:57:51;102933.67;;;2.86;84.73
76598;BME280;65486;53.144;18.134;2023-02-14T06:00:19;102929.33;;;2.86;84.62
76598;BME280;65486;53.144;18.134;2023-02-14T06:02:46;102934.20;;;2.87;84.47
76598;BME280;65486;53.144;18.134;2023-02-14T06:05:14;102941.94;;;2.87;84.82
76598;BME280;65486;53.144;18.134;2023-02-14T06:07:43;102944.54;;;2.89;84.47
76598;BME280;65486;53.144;18.134;2023-02-14T06:10:24;102935.70;;;2.90;84.70
76598;BME280;65486;53.144;18.134;2023-02-14T06:12:52;102938.34;;;2.91;84.65
76598;BME280;65486;53.144;18.134;2023-02-14T06:15:22;102941.62;;;2.93;84.49
76598;BME280;65486;53.144;18.134;2023-02-14T06:18:02;102940.73;;;2.91;84.53
76598;BME280;65486;53.144;18.134;2023-02-14T06:20:29;102952.16;;;2.98;84.37
76598;BME280;65486;53.144;18.134;2023-02-14T06:22:57;102954.23;;;3.00;84.46
76598;BME280;65486;53.144;18.134;2023-02-14T06:25:29;102955.35;;;3.02;84.32
76598;BME280;65486;53.144;18.134;2023-02-14T06:27:56;102956.83;;;3.04;84.58
76598;BME280;65486;53.144;18.134;2023-02-14T06:30:34;102949.49;;;3.00;84.38
76598;BME280;65486;53.144;18.134;2023-02-14T06:33:57;102957.54;;;3.06;84.52
76598;BME280;65486;53.144;18.134;2023-02-14T06:36:38;102959.09;;;3.07;84.53
76598;BME280;65486;53.144;18.134;2023-02-14T06:39:07;102957.20;;;3.08;84.64
76598;BME280;65486;53.144;18.134;2023-02-14T06:41:35;102960.46;;;3.08;84.46
76598;BME280;65486;53.144;18.134;2023-02-14T06:44:01;102962.02;;;3.09;84.50
76598;BME280;65486;53.144;18.134;2023-02-14T06:46:27;102958.53;;;3.09;84.69
76598;BME280;65486;53.144;18.134;2023-02-14T06:48:57;102959.45;;;3.09;84.81
76598;BME280;65486;53.144;18.134;2023-02-14T06:51:24;102966.86;;;3.10;84.36
76598;BME280;65486;53.144;18.134;2023-02-14T06:53:51;102966.83;;;3.10;84.57
76598;BME280;65486;53.144;18.134;2023-02-14T06:56:28;102968.89;;;3.12;84.77
76598;BME280;65486;53.144;18.134;2023-02-14T06:59:07;102964.48;;;3.12;84.64
76598;BME280;65486;53.144;18.134;2023-02-14T07:01:36;102964.40;;;3.16;84.43
76598;BME280;65486;53.144;18.134;2023-02-14T07:04:04;102965.29;;;3.18;84.60
76598;BME280;65486;53.144;18.134;2023-02-14T07:06:36;102964.55;;;3.20;84.55
76598;BME280;65486;53.144;18.134;2023-02-14T07:09:05;102964.13;;;3.22;84.37
76598;BME280;65486;53.144;18.134;2023-02-14T07:11:39;102972.46;;;3.24;84.38
76598;BME280;65486;53.144;18.134;2023-02-14T07:14:40;102976.41;;;3.27;84.47
76598;BME280;65486;53.144;18.134;2023-02-14T07:17:10;102973.26;;;3.30;84.34
76598;BME280;65486;53.144;18.134;2023-02-14T07:19:42;102979.66;;;3.31;84.34
76598;BME280;65486;53.144;18.134;2023-02-14T07:22:23;102981.94;;;3.35;84.20
76598;BME280;65486;53.144;18.134;2023-02-14T07:25:10;102976.86;;;3.34;84.13
76598;BME280;65486;53.144;18.134;2023-02-14T07:27:38;102983.42;;;3.43;84.18
76598;BME280;65486;53.144;18.134;2023-02-14T07:30:06;102985.08;;;3.48;84.04
76598;BME280;65486;53.144;18.134;2023-02-14T07:32:37;102984.12;;;3.51;84.11
76598;BME280;65486;53.144;18.134;2023-02-14T07:35:05;102985.83;;;3.50;84.09
76598;BME280;65486;53.144;18.134;2023-02-14T07:37:34;102991.42;;;3.53;83.86
76598;BME280;65486;53.144;18.134;2023-02-14T07:40:01;102985.05;;;3.51;83.87
76598;BME280;65486;53.144;18.134;2023-02-14T07:42:34;102994.92;;;3.54;83.96
76598;BME280;65486;53.144;18.134;2023-02-14T07:45:40;102991.05;;;3.57;84.01
76598;BME280;65486;53.144;18.134;2023-02-14T07:48:08;102997.11;;;3.61;83.92
76598;BME280;65486;53.144;18.134;2023-02-14T07:50:34;102998.89;;;3.64;83.70
76598;BME280;65486;53.144;18.134;2023-02-14T07:53:01;102997.35;;;3.67;83.74
76598;BME280;65486;53.144;18.134;2023-02-14T07:55:27;102998.77;;;3.70;83.64
76598;BME280;65486;53.144;18.134;2023-02-14T07:57:53;103007.45;;;3.73;83.57
76598;BME280;65486;53.144;18.134;2023-02-14T08:00:21;103010.48;;;3.75;83.49
76598;BME280;65486;53.144;18.134;2023-02-14T08:02:48;103009.39;;;3.78;83.41
76598;BME280;65486;53.144;18.134;2023-02-14T08:05:15;103004.80;;;3.80;83.59
76598;BME280;65486;53.144;18.134;2023-02-14T08:07:42;103003.72;;;3.84;83.26
76598;BME280;65486;53.144;18.134;2023-02-14T08:10:10;102999.71;;;3.90;83.20
76598;BME280;65486;53.144;18.134;2023-02-14T08:12:36;102998.64;;;3.91;83.11
76598;BME280;65486;53.144;18.134;2023-02-14T08:15:21;103007.81;;;3.92;83.08
76598;BME280;65486;53.144;18.134;2023-02-14T08:18:05;103009.92;;;3.93;83.21
76598;BME280;65486;53.144;18.134;2023-02-14T08:20:32;103005.17;;;3.96;83.07
76598;BME280;65486;53.144;18.134;2023-02-14T08:23:04;103014.91;;;3.99;82.95
76598;BME280;65486;53.144;18.134;2023-02-14T08:25:49;103021.90;;;4.03;82.66
76598;BME280;65486;53.144;18.134;2023-02-14T08:28:26;103014.39;;;4.05;82.86
76598;BME280;65486;53.144;18.134;2023-02-14T08:30:53;103013.09;;;4.12;82.72
76598;BME280;65486;53.144;18.134;2023-02-14T08:33:20;103018.39;;;4.19;82.72
76598;BME280;65486;53.144;18.134;2023-02-14T08:35:47;103025.23;;;4.21;82.30
76598;BME280;65486;53.144;18.134;2023-02-14T08:38:13;103035.54;;;4.25;82.42
76598;BME280;65486;53.144;18.134;2023-02-14T08:40:39;103032.27;;;4.29;82.30
76598;BME280;65486;53.144;18.134;2023-02-14T08:43:07;103027.36;;;4.34;82.25
76598;BME280;65486;53.144;18.134;2023-02-14T08:45:33;103029.29;;;4.36;82.18
76598;BME280;65486;53.144;18.134;2023-02-14T08:48:06;103031.63;;;4.39;82.07
76598;BME280;65486;53.144;18.134;2023-02-14T08:50:39;103028.66;;;4.42;81.92
76598;BME280;65486;53.144;18.134;2023-02-14T08:53:12;103027.11;;;4.45;81.61
76598;BME280;65486;53.144;18.134;2023-02-14T08:55:39;103024.53;;;4.50;81.46
76598;BME280;65486;53.144;18.134;2023-02-14T08:58:06;103022.04;;;4.51;81.48
76598;BME280;65486;53.144;18.134;2023-02-14T09:00:32;103030.73;;;4.54;81.67
76598;BME280;65486;53.144;18.134;2023-02-14T09:03:00;103038.23;;;4.58;81.50
76598;BME280;65486;53.144;18.134;2023-02-14T09:05:26;103035.05;;;4.61;81.31
76598;BME280;65486;53.144;18.134;2023-02-14T09:07:53;103031.44;;;4.65;81.39
76598;BME280;65486;53.144;18.134;2023-02-14T09:10:25;103029.75;;;4.69;81.22
76598;BME280;65486;53.144;18.134;2023-02-14T09:12:52;103029.58;;;4.73;81.32
76598;BME280;65486;53.144;18.134;2023-02-14T09:15:20;103035.45;;;4.77;80.94
76598;BME280;65486;53.144;18.134;2023-02-14T09:17:47;103041.31;;;4.81;81.03
76598;BME280;65486;53.144;18.134;2023-02-14T09:20:20;103041.35;;;4.87;81.00
76598;BME280;65486;53.144;18.134;2023-02-14T09:22:46;103041.73;;;4.91;80.94
76598;BME280;65486;53.144;18.134;2023-02-14T09:25:13;103042.55;;;4.92;80.82
76598;BME280;65486;53.144;18.134;2023-02-14T09:27:43;103045.10;;;4.90;80.61
76598;BME280;65486;53.144;18.134;2023-02-14T09:30:10;103052.66;;;4.89;81.02
76598;BME280;65486;53.144;18.134;2023-02-14T09:32:36;103056.95;;;4.92;80.61
76598;BME280;65486;53.144;18.134;2023-02-14T09:35:03;103052.86;;;4.95;80.81
76598;BME280;65486;53.144;18.134;2023-02-14T09:37:30;103054.95;;;4.99;80.80
76598;BME280;65486;53.144;18.134;2023-02-14T09:39:56;103055.27;;;4.99;80.53
76598;BME280;65486;53.144;18.134;2023-02-14T09:45:11;103066.09;;;5.07;80.52
76598;BME280;65486;53.144;18.134;2023-02-14T09:52:52;103056.12;;;5.14;79.95
76598;BME280;65486;53.144;18.134;2023-02-14T09:55:35;103065.25;;;5.14;79.94
76598;BME280;65486;53.144;18.134;2023-02-14T09:58:12;103061.14;;;5.18;80.42
76598;BME280;65486;53.144;18.134;2023-02-14T10:11:50;103054.98;;;5.50;79.03
76598;BME280;65486;53.144;18.134;2023-02-14T10:14:20;103053.52;;;5.57;78.79
76598;BME280;65486;53.144;18.134;2023-02-14T10:17:09;103043.19;;;5.58;78.69
76598;BME280;65486;53.144;18.134;2023-02-14T10:19:43;103043.91;;;5.58;78.46
76598;BME280;65486;53.144;18.134;2023-02-14T10:22:18;103043.70;;;5.58;78.53
76598;BME280;65486;53.144;18.134;2023-02-14T10:25:05;103043.00;;;5.58;78.84
76598;BME280;65486;53.144;18.134;2023-02-14T10:27:40;103039.80;;;5.61;78.80
76598;BME280;65486;53.144;18.134;2023-02-14T10:30:17;103036.06;;;5.64;78.88
76598;BME280;65486;53.144;18.134;2023-02-14T10:35:49;103031.89;;;5.72;78.59
76598;BME280;65486;53.144;18.134;2023-02-14T10:41:08;103040.42;;;5.70;78.54
76598;BME280;65486;53.144;18.134;2023-02-14T10:52:46;103028.74;;;5.73;77.87
76598;BME280;65486;53.144;18.134;2023-02-14T10:55:35;103027.21;;;5.79;78.21
76598;BME280;65486;53.144;18.134;2023-02-14T10:58:13;103033.79;;;5.90;78.22
76598;BME280;65486;53.144;18.134;2023-02-14T11:01:16;103040.10;;;5.96;77.70
76598;BME280;65486;53.144;18.134;2023-02-14T11:03:58;103026.93;;;6.01;77.62
76598;BME280;65486;53.144;18.134;2023-02-14T11:06:37;103033.63;;;6.04;77.20
76598;BME280;65486;53.144;18.134;2023-02-14T11:09:04;103036.82;;;6.05;77.60
76598;BME280;65486;53.144;18.134;2023-02-14T11:11:56;103034.05;;;6.11;77.11
76598;BME280;65486;53.144;18.134;2023-02-14T11:14:30;103028.61;;;6.13;76.69
76598;BME280;65486;53.144;18.134;2023-02-14T11:17:30;103027.45;;;6.18;76.38
76598;BME280;65486;53.144;18.134;2023-02-14T11:22:54;103026.04;;;6.13;77.10
76598;BME280;65486;53.144;18.134;2023-02-14T11:25:29;103023.84;;;6.17;76.93
76598;BME280;65486;53.144;18.134;2023-02-14T11:28:01;103022.48;;;6.18;76.66
76598;BME280;65486;53.144;18.134;2023-02-14T11:30:42;103022.84;;;6.20;76.68
76598;BME280;65486;53.144;18.134;2023-02-14T11:33:32;103017.70;;;6.22;76.34
76598;BME280;65486;53.144;18.134;2023-02-14T11:36:00;103019.59;;;6.27;76.28
76598;BME280;65486;53.144;18.134;2023-02-14T11:38:34;103015.34;;;6.38;76.40
76598;BME280;65486;53.144;18.134;2023-02-14T11:41:08;103013.15;;;6.52;75.32
76598;BME280;65486;53.144;18.134;2023-02-14T11:43:45;103009.82;;;6.58;75.34
76598;BME280;65486;53.144;18.134;2023-02-14T11:46:28;103017.64;;;6.62;75.54
76598;BME280;65486;53.144;18.134;2023-02-14T11:49:22;103013.69;;;6.67;75.27
76598;BME280;65486;53.144;18.134;2023-02-14T11:51:56;103009.46;;;6.75;75.03
76598;BME280;65486;53.144;18.134;2023-02-14T11:54:50;103006.66;;;6.89;74.36
76598;BME280;65486;53.144;18.134;2023-02-14T11:57:26;103007.35;;;6.96;74.61
76598;BME280;65486;53.144;18.134;2023-02-14T12:00:28;103007.64;;;7.04;74.16
76598;BME280;65486;53.144;18.134;2023-02-14T12:02:58;103011.13;;;7.04;74.28
76598;BME280;65486;53.144;18.134;2023-02-14T12:05:29;103015.29;;;7.04;74.06
76598;BME280;65486;53.144;18.134;2023-02-14T12:08:00;103011.98;;;7.01;73.94
76598;BME280;65486;53.144;18.134;2023-02-14T12:10:29;103011.60;;;7.01;73.73
76598;BME280;65486;53.144;18.134;2023-02-14T12:15:58;103002.84;;;7.06;73.79
76598;BME280;65486;53.144;18.134;2023-02-14T12:18:45;103002.89;;;7.04;74.31
76598;BME280;65486;53.144;18.134;2023-02-14T12:27:06;103003.45;;;6.90;73.01
76598;BME280;65486;53.144;18.134;2023-02-14T12:29:39;102998.90;;;6.82;73.97
76598;BME280;65486;53.144;18.134;2023-02-14T12:32:24;102997.09;;;6.80;74.12
76598;BME280;65486;53.144;18.134;2023-02-14T12:35:00;102994.25;;;6.78;74.00
76598;BME280;65486;53.144;18.134;2023-02-14T12:51:38;102983.30;;;6.68;74.20
76598;BME280;65486;53.144;18.134;2023-02-14T12:54:29;102982.88;;;6.68;73.78
76598;BME280;65486;53.144;18.134;2023-02-14T13:08:18;102973.77;;;6.57;72.97
76598;BME280;65486;53.144;18.134;2023-02-14T13:11:06;102971.05;;;6.54;73.72
76598;BME280;65486;53.144;18.134;2023-02-14T13:13:56;102969.48;;;6.55;73.84
76598;BME280;65486;53.144;18.134;2023-02-14T13:16:42;102966.14;;;6.58;74.31
76598;BME280;65486;53.144;18.134;2023-02-14T13:22:07;102970.07;;;6.67;73.94
76598;BME280;65486;53.144;18.134;2023-02-14T13:24:45;102971.58;;;6.66;73.58
76598;BME280;65486;53.144;18.134;2023-02-14T13:27:27;102969.14;;;6.65;73.89
76598;BME280;65486;53.144;18.134;2023-02-14T13:29:58;102970.98;;;6.66;73.80
76598;BME280;65486;53.144;18.134;2023-02-14T13:32:34;102970.98;;;6.65;73.76
76598;BME280;65486;53.144;18.134;2023-02-14T13:35:04;102960.54;;;6.63;73.67
76598;BME280;65486;53.144;18.134;2023-02-14T13:37:34;102956.96;;;6.58;74.05
76598;BME280;65486;53.144;18.134;2023-02-14T13:40:14;102953.48;;;6.53;74.19
76598;BME280;65486;53.144;18.134;2023-02-14T13:48:23;102942.34;;;6.29;74.20
76598;BME280;65486;53.144;18.134;2023-02-14T13:53:44;102945.48;;;6.19;74.49
76598;BME280;65486;53.144;18.134;2023-02-14T13:56:36;102946.98;;;6.17;74.64
76598;BME280;65486;53.144;18.134;2023-02-14T13:59:09;102949.48;;;6.16;74.64
76598;BME280;65486;53.144;18.134;2023-02-14T14:01:51;102946.16;;;6.14;74.88
76598;BME280;65486;53.144;18.134;2023-02-14T14:15:21;102935.02;;;5.90;74.97
76598;BME280;65486;53.144;18.134;2023-02-14T14:20:54;102934.43;;;5.84;75.23
76598;BME280;65486;53.144;18.134;2023-02-14T14:23:28;102931.90;;;5.82;75.40
76598;BME280;65486;53.144;18.134;2023-02-14T14:25:56;102931.31;;;5.80;75.45
76598;BME280;65486;53.144;18.134;2023-02-14T14:28:24;102926.84;;;5.77;75.46
76598;BME280;65486;53.144;18.134;2023-02-14T14:30:51;102925.45;;;5.75;75.58
76598;BME280;65486;53.144;18.134;2023-02-14T14:36:07;102916.89;;;5.68;75.86
76598;BME280;65486;53.144;18.134;2023-02-14T14:38:48;102922.36;;;5.65;75.81
76598;BME280;65486;53.144;18.134;2023-02-14T14:41:18;102926.35;;;5.61;75.86
76598;BME280;65486;53.144;18.134;2023-02-14T14:43:47;102922.30;;;5.57;76.02
76598;BME280;65486;53.144;18.134;2023-02-14T14:46:17;102916.14;;;5.53;76.01
76598;BME280;65486;53.144;18.134;2023-02-14T14:48:48;102919.97;;;5.47;76.37
76598;BME280;65486;53.144;18.134;2023-02-14T14:54:13;102921.42;;;5.36;76.52
76598;BME280;65486;53.144;18.134;2023-02-14T14:56:51;102924.75;;;5.32;76.70
76598;BME280;65486;53.144;18.134;2023-02-14T14:59:31;102923.52;;;5.30;76.66
76598;BME280;65486;53.144;18.134;2023-02-14T15:02:02;102921.99;;;5.28;76.57
76598;BME280;65486;53.144;18.134;2023-02-14T15:04:34;102927.02;;;5.29;76.72
76598;BME280;65486;53.144;18.134;2023-02-14T15:07:31;102925.21;;;5.29;76.74
76598;BME280;65486;53.144;18.134;2023-02-14T15:09:59;102880.52;;;5.07;76.83
76598;BME280;65486;53.144;18.134;2023-02-14T15:12:27;102913.32;;;5.34;76.88
76598;BME280;65486;53.144;18.134;2023-02-14T15:15:15;102916.04;;;5.36;76.76
76598;BME280;65486;53.144;18.134;2023-02-14T15:17:43;102917.10;;;5.34;76.83
76598;BME280;65486;53.144;18.134;2023-02-14T15:20:16;102895.27;;;5.17;77.01
76598;BME280;65486;53.144;18.134;2023-02-14T15:23:02;102916.00;;;5.28;76.90
76598;BME280;65486;53.144;18.134;2023-02-14T15:25:34;102901.65;;;5.19;76.67
76598;BME280;65486;53.144;18.134;2023-02-14T15:28:04;102915.79;;;5.20;76.95
76598;BME280;65486;53.144;18.134;2023-02-14T15:30:33;102916.42;;;5.15;77.09
76598;BME280;65486;53.144;18.134;2023-02-14T15:33:05;102914.58;;;5.09;77.28
76598;BME280;65486;53.144;18.134;2023-02-14T15:35:34;102912.95;;;5.03;77.31
76598;BME280;65486;53.144;18.134;2023-02-14T15:38:04;102912.92;;;4.95;77.41
76598;BME280;65486;53.144;18.134;2023-02-14T15:40:33;102911.81;;;4.87;77.50
76598;BME280;65486;53.144;18.134;2023-02-14T15:43:20;102909.10;;;4.78;77.69
76598;BME280;65486;53.144;18.134;2023-02-14T15:45:55;102905.92;;;4.69;77.99
76598;BME280;65486;53.144;18.134;2023-02-14T15:48:31;102905.30;;;4.61;77.95
76598;BME280;65486;53.144;18.134;2023-02-14T15:51:01;102909.48;;;4.55;78.19
76598;BME280;65486;53.144;18.134;2023-02-14T15:53:50;102910.91;;;4.47;78.23